Orbital elements of COSMOS 1275 DEB
| Launched | 3 June 1981 |
| Flight ended | – |
| Launch site | Plesetsk Missile and Space Complex, Russia |
| Owner | Commonwealth of Independent States (former USSR) |
| NORAD ID | 13797 |
| Date fetched |
Epoch osculation |
Inc. [°] |
Ecc. | RA asc node [hr] |
Arg Peri. [°] |
Mean anom [°] |
Mean motion [rev/day] |
Abs. mag |
| Date fetched |
Epoch osculation |
Inc. [°] |
Ecc. | RA asc node [hr] |
Arg Peri. [°] |
Mean anom [°] |
Mean motion [rev/day] |
Abs. mag |
| 2026 May 08 17:57 | 2026 May 05 13:19:46 | 82.8371 | 0.00512 | 22.7016 | 17.2345 | 10.4409 | 13.86293 | – |
| 2026 May 07 17:58 | 2026 May 05 13:19:46 | 82.8371 | 0.00512 | 22.7016 | 17.2345 | 10.4409 | 13.86293 | – |
| 2026 May 06 17:57 | 2026 May 05 13:19:46 | 82.8371 | 0.00512 | 22.7016 | 17.2345 | 10.4409 | 13.86293 | – |
| 2026 May 05 17:57 | 2026 May 05 13:19:46 | 82.8371 | 0.00512 | 22.7016 | 17.2345 | 10.4409 | 13.86293 | – |
| 2026 May 04 17:57 | 2026 Apr 30 13:48:19 | 82.8379 | 0.00515 | 22.9561 | 31.0262 | 10.4409 | 13.86293 | – |
| 2026 May 03 17:57 | 2026 Apr 30 13:48:19 | 82.8379 | 0.00515 | 22.9561 | 31.0262 | 10.4409 | 13.86293 | – |
| 2026 May 02 17:57 | 2026 Apr 30 13:48:19 | 82.8379 | 0.00515 | 22.9561 | 31.0262 | 10.4409 | 13.86293 | – |
| 2026 May 01 17:56 | 2026 Apr 30 13:48:19 | 82.8379 | 0.00515 | 22.9561 | 31.0262 | 10.4409 | 13.86293 | – |
| 2026 Apr 30 17:56 | 2026 Apr 30 13:48:19 | 82.8379 | 0.00515 | 22.9561 | 31.0262 | 10.4409 | 13.86293 | – |
| 2026 Apr 29 17:57 | 2026 Apr 24 02:30:06 | 82.8387 | 0.00518 | 23.2866 | 48.8408 | 10.4409 | 13.86293 | – |
| 2026 Apr 28 17:56 | 2026 Apr 24 02:30:06 | 82.8387 | 0.00518 | 23.2866 | 48.8408 | 10.4409 | 13.86293 | – |
| 2026 Apr 27 17:58 | 2026 Apr 24 02:30:06 | 82.8387 | 0.00518 | 23.2866 | 48.8408 | 10.4409 | 13.86293 | – |
| 2026 Apr 26 17:58 | 2026 Apr 24 02:30:06 | 82.8387 | 0.00518 | 23.2866 | 48.8408 | 10.4409 | 13.86293 | – |
| 2026 Apr 25 17:58 | 2026 Apr 24 02:30:06 | 82.8387 | 0.00518 | 23.2866 | 48.8408 | 10.4409 | 13.86293 | – |
| 2026 Apr 24 17:59 | 2026 Apr 24 02:30:06 | 82.8387 | 0.00518 | 23.2866 | 48.8408 | 10.4409 | 13.86293 | – |
| 2026 Apr 23 17:57 | 2026 Apr 19 03:00:19 | 82.8392 | 0.00519 | 23.5409 | 62.4560 | 10.4409 | 13.86293 | – |
| 2026 Apr 22 17:57 | 2026 Apr 19 03:00:19 | 82.8392 | 0.00519 | 23.5409 | 62.4560 | 10.4409 | 13.86293 | – |
| 2026 Apr 21 17:57 | 2026 Apr 19 03:00:19 | 82.8392 | 0.00519 | 23.5409 | 62.4560 | 10.4409 | 13.86293 | – |
| 2026 Apr 20 17:57 | 2026 Apr 19 03:00:19 | 82.8392 | 0.00519 | 23.5409 | 62.4560 | 10.4409 | 13.86293 | – |
| 2026 Apr 19 17:58 | 2026 Apr 19 03:00:19 | 82.8392 | 0.00519 | 23.5409 | 62.4560 | 10.4409 | 13.86293 | – |
| 2026 Apr 18 17:56 | 2026 Apr 13 04:58:18 | 82.8399 | 0.00518 | 23.8432 | 78.6302 | 10.4409 | 13.86293 | – |
| 2026 Apr 16 17:57 | 2026 Apr 13 04:58:18 | 82.8399 | 0.00518 | 23.8432 | 78.6302 | 10.4409 | 13.86293 | – |
| 2026 Apr 14 17:57 | 2026 Apr 13 04:58:18 | 82.8399 | 0.00518 | 23.8432 | 78.6302 | 10.4409 | 13.86293 | – |
| 2026 Apr 13 17:57 | 2026 Apr 13 04:58:18 | 82.8399 | 0.00518 | 23.8432 | 78.6302 | 10.4409 | 13.86293 | – |
| 2026 Apr 12 17:57 | 2026 Apr 08 05:15:36 | 82.8403 | 0.00516 | 0.0979 | 92.3352 | 10.4409 | 13.86293 | – |
| 2026 Apr 11 17:57 | 2026 Apr 08 05:15:36 | 82.8403 | 0.00516 | 0.0979 | 92.3352 | 10.4409 | 13.86293 | – |